Time;durP1;ratioP1;P1;durP2;ratioP2;P2;SDS_P1;SDS_P2;PMS_P1;PMS_P2;Temp;Humidity;BMP_temperature;BMP_pressure;BME280_temperature;BME280_humidity;BME280_pressure;Samples;Min_cycle;Max_cycle;Signal;HPM_P1;HPM_P2
2021/08/20 00:02:22;;;;;;;7.18;3.58;;;24.80;83.40;;;;;;5002041;28;20193;-74
2021/08/20 00:04:48;;;;;;;9.55;3.30;;;24.70;83.40;;;;;;4987739;28;20181;-74
2021/08/20 00:07:14;;;;;;;4.50;3.42;;;24.70;83.40;;;;;;5006164;28;20649;-74
2021/08/20 00:09:40;;;;;;;6.20;3.40;;;24.70;83.40;;;;;;5004133;28;20690;-74
2021/08/20 00:12:08;;;;;;;6.63;3.50;;;24.70;83.60;;;;;;5002742;28;20227;-74
2021/08/20 00:14:34;;;;;;;6.53;3.67;;;24.70;83.30;;;;;;5005416;28;20240;-74
2021/08/20 00:17:00;;;;;;;5.00;3.50;;;24.60;83.10;;;;;;5007617;28;20191;-74
2021/08/20 00:19:27;;;;;;;6.70;3.43;;;24.60;83.60;;;;;;4999963;28;20184;-74
2021/08/20 00:21:53;;;;;;;7.43;3.20;;;24.70;83.70;;;;;;5000505;28;20213;-74
2021/08/20 00:24:19;;;;;;;4.72;3.47;;;24.70;83.80;;;;;;5002442;28;20716;-74
2021/08/20 00:26:45;;;;;;;4.95;3.15;;;24.70;83.80;;;;;;4987958;28;20190;-74
2021/08/20 00:29:12;;;;;;;4.47;3.08;;;24.80;84.10;;;;;;5005594;28;20681;-74
2021/08/20 00:31:38;;;;;;;7.32;3.13;;;24.70;83.80;;;;;;4988588;28;20251;-74
2021/08/20 00:34:05;;;;;;;5.10;3.03;;;24.80;84.50;;;;;;5015757;28;20582;-74
2021/08/20 00:36:32;;;;;;;4.38;3.08;;;24.70;83.60;;;;;;4984082;28;20193;-75
2021/08/20 00:39:00;;;;;;;5.47;3.42;;;24.70;83.70;;;;;;5003239;28;20176;-74
2021/08/20 00:41:27;;;;;;;5.82;2.90;;;24.70;83.50;;;;;;5004593;28;20687;-74
2021/08/20 00:43:53;;;;;;;6.75;3.30;;;24.70;83.80;;;;;;5003851;28;20194;-74
2021/08/20 00:46:19;;;;;;;4.30;3.00;;;24.80;83.90;;;;;;4995340;28;20197;-74
2021/08/20 00:48:46;;;;;;;5.72;3.15;;;24.70;83.20;;;;;;4997583;28;20200;-74
2021/08/20 00:51:17;;;;;;;5.82;2.83;;;24.70;83.30;;;;;;5002486;28;20534;-74
2021/08/20 00:53:44;;;;;;;5.82;3.13;;;24.70;83.70;;;;;;4986259;28;20647;-74
2021/08/20 00:56:11;;;;;;;3.88;2.70;;;24.70;83.20;;;;;;5007793;28;20188;-74
2021/08/20 00:58:38;;;;;;;5.32;3.22;;;24.70;84.00;;;;;;5000172;28;20523;-74
2021/08/20 01:01:05;;;;;;;4.55;3.15;;;24.70;83.70;;;;;;5002086;28;20207;-74
2021/08/20 01:03:32;;;;;;;8.77;3.40;;;24.70;83.20;;;;;;5000081;28;20811;-74
2021/08/20 01:06:03;;;;;;;4.30;3.00;;;24.70;83.70;;;;;;5001613;28;20251;-74
2021/08/20 01:08:31;;;;;;;6.03;3.50;;;24.70;83.10;;;;;;5000555;28;20212;-74
2021/08/20 01:11:00;;;;;;;5.78;3.13;;;24.70;84.40;;;;;;5001188;28;20189;-74
2021/08/20 01:13:40;;;;;;;11.30;4.50;;;24.60;83.10;;;;;;4999119;28;20194;-74
2021/08/20 01:16:08;;;;;;;4.55;3.00;;;24.60;82.50;;;;;;4997552;28;20205;-73
2021/08/20 01:18:41;;;;;;;7.07;3.00;;;24.50;82.90;;;;;;4976182;28;20185;-75
2021/08/20 01:21:17;;;;;;;4.50;3.20;;;24.50;83.30;;;;;;5009313;28;20192;-76
2021/08/20 01:23:57;;;;;;;6.05;3.53;;;24.50;83.80;;;;;;5005148;28;20239;-76
2021/08/20 01:26:25;;;;;;;7.07;3.20;;;24.50;84.10;;;;;;4997789;28;20284;-76
2021/08/20 01:28:52;;;;;;;8.20;3.40;;;24.40;83.50;;;;;;5017214;28;20219;-76
2021/08/20 01:31:19;;;;;;;6.37;3.57;;;24.40;83.30;;;;;;4989162;28;20710;-76
2021/08/20 01:33:47;;;;;;;8.98;3.55;;;24.40;83.50;;;;;;5005978;28;20200;-76
2021/08/20 01:36:14;;;;;;;5.30;3.40;;;24.30;83.90;;;;;;5010215;28;20251;-76
2021/08/20 01:38:53;;;;;;;7.03;3.50;;;24.30;84.20;;;;;;5007951;28;20661;-76
2021/08/20 01:41:23;;;;;;;6.68;3.83;;;24.30;84.20;;;;;;5002950;28;20896;-76
2021/08/20 01:43:50;;;;;;;6.07;3.47;;;24.30;84.90;;;;;;5004218;28;20201;-76
2021/08/20 01:46:16;;;;;;;6.45;4.00;;;24.40;84.80;;;;;;4986190;28;20188;-75
2021/08/20 01:48:53;;;;;;;6.63;4.10;;;24.40;85.30;;;;;;4980079;28;20215;-76
2021/08/20 01:51:24;;;;;;;8.07;3.60;;;24.50;84.90;;;;;;5001947;28;20594;-76
2021/08/20 01:53:53;;;;;;;6.60;3.88;;;24.50;85.00;;;;;;4985381;28;20181;-76
2021/08/20 01:56:27;;;;;;;5.43;3.67;;;24.50;85.00;;;;;;5002896;28;20189;-76
2021/08/20 01:58:55;;;;;;;5.73;3.43;;;24.50;84.60;;;;;;5017822;28;20219;-76
2021/08/20 02:01:22;;;;;;;6.43;3.80;;;24.50;84.50;;;;;;4996934;28;20857;-76
2021/08/20 02:03:49;;;;;;;6.47;4.03;;;24.50;83.70;;;;;;5016700;28;20300;-76
2021/08/20 02:06:16;;;;;;;7.80;3.93;;;24.50;84.10;;;;;;5006072;28;20196;-76
2021/08/20 02:08:43;;;;;;;7.07;3.87;;;24.50;84.40;;;;;;5004961;28;20182;-76
2021/08/20 02:11:11;;;;;;;6.03;3.83;;;24.50;84.30;;;;;;4989786;28;20185;-76
2021/08/20 02:13:39;;;;;;;6.77;3.83;;;24.50;84.60;;;;;;5002283;28;20667;-76
2021/08/20 02:16:06;;;;;;;5.68;3.67;;;24.50;85.70;;;;;;5018761;28;20200;-77
2021/08/20 02:18:33;;;;;;;6.90;3.70;;;24.50;87.70;;;;;;5001216;28;22275;-77
2021/08/20 02:21:00;;;;;;;9.73;4.33;;;24.40;87.70;;;;;;4985044;28;20188;-77
2021/08/20 02:23:26;;;;;;;6.30;3.87;;;24.40;89.00;;;;;;5022294;28;20662;-75
2021/08/20 02:25:53;;;;;;;6.33;3.73;;;24.40;90.10;;;;;;4989510;28;20184;-75
2021/08/20 02:28:20;;;;;;;8.25;4.35;;;24.40;90.90;;;;;;5000347;28;20228;-74
2021/08/20 02:30:49;;;;;;;8.77;4.17;;;24.40;92.20;;;;;;5015820;28;20181;-75
2021/08/20 02:33:16;;;;;;;7.63;4.53;;;24.30;93.50;;;;;;5006624;28;20181;-75
2021/08/20 02:35:42;;;;;;;8.97;4.60;;;24.30;93.70;;;;;;5000697;28;20221;-77
2021/08/20 02:38:08;;;;;;;5.30;4.18;;;24.30;95.20;;;;;;5004518;28;20188;-75
2021/08/20 02:40:34;;;;;;;8.33;4.40;;;24.30;95.90;;;;;;4982062;28;20190;-75
2021/08/20 02:43:01;;;;;;;8.32;5.18;;;24.30;97.50;;;;;;5004729;28;20228;-74
2021/08/20 02:45:27;;;;;;;8.73;4.97;;;24.30;98.40;;;;;;4998969;28;20658;-74
2021/08/20 02:47:54;;;;;;;12.93;4.77;;;24.30;99.90;;;;;;4989745;28;20188;-74
2021/08/20 02:50:20;;;;;;;11.20;4.60;;;24.30;99.90;;;;;;4994233;28;20591;-77
2021/08/20 02:52:48;;;;;;;9.98;4.60;;;24.30;99.10;;;;;;4983387;28;20187;-77
2021/08/20 02:55:14;;;;;;;5.72;3.97;;;24.30;97.40;;;;;;4998187;28;20224;-76
2021/08/20 02:57:40;;;;;;;9.73;4.45;;;24.20;95.90;;;;;;5012534;28;20928;-74
2021/08/20 03:00:08;;;;;;;6.43;3.73;;;24.20;95.00;;;;;;5001142;28;20826;-75
2021/08/20 03:02:34;;;;;;;7.67;4.10;;;24.20;94.60;;;;;;4989156;28;20185;-75
2021/08/20 03:05:00;;;;;;;10.55;4.13;;;24.20;94.30;;;;;;4985040;28;20185;-76
2021/08/20 03:07:26;;;;;;;6.63;3.30;;;24.10;93.60;;;;;;5005767;28;20197;-76
2021/08/20 03:09:53;;;;;;;7.10;4.60;;;24.10;93.00;;;;;;5007347;28;20557;-76
2021/08/20 03:12:21;;;;;;;5.53;3.73;;;24.10;92.60;;;;;;4982565;28;20280;-76
2021/08/20 03:14:48;;;;;;;9.80;3.77;;;24.00;91.90;;;;;;4987299;28;20216;-76
2021/08/20 03:17:14;;;;;;;6.57;3.77;;;24.00;91.70;;;;;;5004144;28;20193;-76
2021/08/20 03:19:41;;;;;;;8.17;3.70;;;23.90;90.50;;;;;;5017589;28;20185;-76
2021/08/20 03:22:07;;;;;;;8.13;3.50;;;23.80;90.30;;;;;;4995259;28;20296;-77
2021/08/20 03:24:33;;;;;;;5.93;3.20;;;23.90;90.40;;;;;;4985069;28;20256;-77
2021/08/20 03:26:59;;;;;;;8.27;3.40;;;23.80;90.00;;;;;;4992467;28;20192;-76
2021/08/20 03:29:26;;;;;;;4.63;3.20;;;23.80;90.00;;;;;;4998868;28;20432;-75
2021/08/20 03:31:52;;;;;;;9.37;3.37;;;23.80;90.20;;;;;;5003973;28;20200;-75
2021/08/20 03:34:18;;;;;;;6.90;3.70;;;23.70;90.70;;;;;;5011470;28;20209;-75
2021/08/20 03:36:44;;;;;;;6.57;3.80;;;23.70;92.40;;;;;;5005194;28;20193;-77
2021/08/20 03:39:11;;;;;;;13.23;3.87;;;23.70;92.70;;;;;;4989670;28;20203;-77
2021/08/20 03:41:37;;;;;;;4.97;3.50;;;23.70;92.20;;;;;;5005269;28;20594;-75
2021/08/20 03:44:03;;;;;;;5.97;3.80;;;23.70;91.90;;;;;;5019429;28;20193;-77
2021/08/20 03:46:31;;;;;;;5.00;3.10;;;23.70;91.20;;;;;;5005952;28;20279;-77
2021/08/20 03:48:57;;;;;;;6.30;3.50;;;23.70;91.10;;;;;;4990233;28;20312;-75
2021/08/20 03:51:23;;;;;;;6.93;3.73;;;23.80;90.90;;;;;;5005012;28;20188;-76
2021/08/20 03:53:49;;;;;;;4.80;3.30;;;23.80;90.80;;;;;;5018034;28;20189;-77
2021/08/20 03:56:15;;;;;;;4.07;3.20;;;23.70;90.60;;;;;;5003557;28;20201;-76
2021/08/20 03:58:42;;;;;;;6.40;3.90;;;23.80;90.60;;;;;;5004808;28;20914;-75
2021/08/20 04:01:08;;;;;;;6.17;4.00;;;23.80;92.70;;;;;;5005959;28;20213;-75
2021/08/20 04:03:34;;;;;;;8.83;3.90;;;23.80;97.20;;;;;;4994530;28;20217;-75
2021/08/20 04:06:01;;;;;;;7.97;4.50;;;23.90;99.30;;;;;;5007738;28;20209;-75
2021/08/20 04:08:27;;;;;;;8.33;4.43;;;24.00;99.60;;;;;;5008038;28;20692;-75
2021/08/20 04:10:53;;;;;;;7.40;4.17;;;24.00;99.00;;;;;;5009143;28;20196;-75
2021/08/20 04:13:20;;;;;;;7.63;4.50;;;24.10;99.90;;;;;;5009376;28;20547;-76
2021/08/20 04:15:46;;;;;;;10.52;4.93;;;24.10;99.90;;;;;;5003408;28;20244;-76
2021/08/20 04:18:12;;;;;;;22.43;4.87;;;24.10;99.90;;;;;;4991135;28;20922;-76
2021/08/20 04:20:39;;;;;;;47.47;6.13;;;24.10;99.40;;;;;;5004920;28;20197;-76
2021/08/20 04:23:05;;;;;;;37.30;5.27;;;24.10;97.40;;;;;;5006362;28;20204;-76
2021/08/20 04:25:32;;;;;;;22.20;4.57;;;24.10;95.70;;;;;;5004167;28;20185;-76
2021/08/20 04:27:59;;;;;;;27.43;5.30;;;24.10;95.30;;;;;;5006816;28;20197;-75
2021/08/20 04:30:29;;;;;;;29.43;5.43;;;24.10;95.50;;;;;;5007668;28;20189;-75
2021/08/20 04:32:59;;;;;;;22.55;4.93;;;24.10;96.10;;;;;;4994039;28;20238;-76
2021/08/20 04:35:27;;;;;;;22.42;4.50;;;24.10;96.10;;;;;;4997040;28;20212;-75
2021/08/20 04:37:54;;;;;;;31.63;5.10;;;24.10;96.20;;;;;;4988131;28;20217;-75
2021/08/20 04:40:20;;;;;;;10.15;4.03;;;24.10;95.80;;;;;;5001601;28;20281;-75
2021/08/20 04:42:47;;;;;;;9.43;3.90;;;24.10;95.70;;;;;;4991561;28;20216;-75
2021/08/20 04:45:15;;;;;;;5.97;3.77;;;24.10;95.60;;;;;;5003801;28;20193;-75
2021/08/20 04:47:43;;;;;;;9.60;3.50;;;24.10;95.50;;;;;;5005825;28;20217;-75
2021/08/20 04:50:11;;;;;;;7.57;3.53;;;24.20;96.20;;;;;;5003414;28;20258;-75
2021/08/20 04:52:37;;;;;;;6.57;3.73;;;24.30;96.00;;;;;;4986871;28;20275;-75
2021/08/20 04:55:05;;;;;;;6.35;3.60;;;24.40;96.20;;;;;;5005326;28;20223;-76
2021/08/20 04:57:31;;;;;;;6.13;3.50;;;24.50;96.30;;;;;;5003342;28;20272;-76
2021/08/20 04:59:58;;;;;;;5.32;3.90;;;24.50;97.00;;;;;;5011129;28;20208;-76
2021/08/20 05:02:28;;;;;;;5.18;3.47;;;24.60;96.80;;;;;;4986371;28;20193;-76
2021/08/20 05:04:55;;;;;;;7.13;3.87;;;24.60;96.70;;;;;;5000670;28;20201;-74
2021/08/20 05:07:21;;;;;;;4.33;3.50;;;24.70;95.90;;;;;;5012198;28;20193;-74
2021/08/20 05:09:49;;;;;;;6.55;3.50;;;24.80;96.30;;;;;;5008685;28;20192;-74
2021/08/20 05:12:16;;;;;;;6.30;3.85;;;24.80;95.10;;;;;;4987725;28;20193;-74
2021/08/20 05:14:43;;;;;;;5.70;3.42;;;24.90;95.40;;;;;;4989252;28;20217;-75
2021/08/20 05:17:09;;;;;;;8.32;3.60;;;24.90;94.60;;;;;;5008141;28;20197;-74
2021/08/20 05:19:36;;;;;;;5.47;3.30;;;25.00;94.80;;;;;;5001630;28;20303;-75
2021/08/20 05:22:02;;;;;;;6.50;3.47;;;25.00;94.60;;;;;;5003847;28;20808;-75
2021/08/20 05:24:29;;;;;;;9.75;3.63;;;25.10;94.50;;;;;;5003783;28;20335;-75
2021/08/20 05:26:55;;;;;;;8.23;3.53;;;25.10;94.10;;;;;;5006653;28;20193;-75
2021/08/20 05:29:22;;;;;;;7.63;3.22;;;25.10;93.90;;;;;;5008412;28;20231;-75
2021/08/20 05:31:48;;;;;;;4.22;2.90;;;25.20;93.80;;;;;;5002715;28;20201;-76
2021/08/20 05:34:14;;;;;;;8.10;3.90;;;25.20;94.00;;;;;;5003834;28;20201;-76
2021/08/20 05:36:41;;;;;;;7.43;3.10;;;25.30;93.60;;;;;;4983958;28;20205;-76
2021/08/20 05:39:07;;;;;;;4.65;2.97;;;25.30;93.50;;;;;;5018117;28;20189;-76
2021/08/20 05:41:34;;;;;;;5.90;3.40;;;25.30;93.70;;;;;;5006620;28;21006;-76
2021/08/20 05:44:00;;;;;;;9.68;4.10;;;25.40;93.30;;;;;;5006989;28;20193;-77
2021/08/20 05:46:26;;;;;;;10.88;3.83;;;25.50;93.10;;;;;;5000509;28;20181;-75
2021/08/20 05:48:52;;;;;;;11.38;3.70;;;25.60;93.00;;;;;;5008476;28;20287;-75
2021/08/20 05:51:20;;;;;;;11.52;3.70;;;25.70;93.40;;;;;;5007513;28;20219;-75
2021/08/20 05:53:47;;;;;;;8.98;3.83;;;25.60;93.40;;;;;;5009796;28;20189;-75
2021/08/20 05:56:13;;;;;;;7.53;3.15;;;25.70;94.00;;;;;;5008569;28;20220;-73
2021/08/20 05:58:39;;;;;;;8.35;3.50;;;25.80;94.20;;;;;;5006795;28;20234;-73
2021/08/20 06:01:06;;;;;;;6.90;4.05;;;26.10;94.50;;;;;;5004528;28;20185;-72
2021/08/20 06:03:32;;;;;;;5.95;3.53;;;26.10;94.30;;;;;;5002589;28;20224;-72
2021/08/20 06:05:58;;;;;;;7.13;3.67;;;26.20;94.60;;;;;;4986935;28;20289;-75
2021/08/20 06:08:25;;;;;;;6.07;3.80;;;26.20;94.80;;;;;;5000744;28;20279;-73
2021/08/20 06:10:52;;;;;;;10.63;3.53;;;26.20;94.70;;;;;;5007713;28;20605;-74
2021/08/20 06:13:20;;;;;;;10.93;3.60;;;26.20;95.50;;;;;;5009176;28;20199;-73
2021/08/20 06:15:46;;;;;;;10.90;4.03;;;26.50;93.90;;;;;;5006395;28;20218;-73
2021/08/20 06:18:13;;;;;;;12.57;3.78;;;26.50;94.50;;;;;;5006596;28;20220;-73
2021/08/20 06:20:39;;;;;;;6.88;3.22;;;26.60;93.50;;;;;;5002381;28;20267;-74
2021/08/20 06:23:06;;;;;;;13.75;3.50;;;26.80;93.20;;;;;;5006921;28;20186;-75
2021/08/20 06:25:32;;;;;;;6.15;3.72;;;26.70;93.60;;;;;;5005423;28;20192;-73
2021/08/20 06:27:58;;;;;;;11.57;4.32;;;26.80;93.50;;;;;;4989194;28;20197;-73
2021/08/20 06:30:25;;;;;;;10.90;3.70;;;26.90;93.70;;;;;;5008349;28;20197;-73
2021/08/20 06:32:52;;;;;;;14.13;3.78;;;26.90;93.60;;;;;;5005087;28;20193;-74
2021/08/20 06:35:19;;;;;;;10.00;3.85;;;27.00;93.60;;;;;;4992743;28;20220;-75
2021/08/20 06:37:46;;;;;;;5.35;3.20;;;27.10;93.60;;;;;;5004402;28;20244;-75
2021/08/20 06:40:13;;;;;;;8.88;4.10;;;27.20;93.80;;;;;;4985360;28;20308;-76
2021/08/20 06:42:39;;;;;;;7.82;3.85;;;27.30;93.20;;;;;;4990222;28;20779;-75
2021/08/20 06:45:07;;;;;;;9.98;4.00;;;27.40;93.60;;;;;;5003428;28;20189;-75
2021/08/20 06:47:35;;;;;;;9.80;3.72;;;27.50;93.50;;;;;;4989311;28;20279;-75
2021/08/20 06:50:01;;;;;;;7.03;4.13;;;27.60;92.90;;;;;;5000480;28;20208;-75
2021/08/20 06:52:29;;;;;;;7.63;3.30;;;27.70;93.20;;;;;;5003324;28;20703;-75
2021/08/20 06:55:00;;;;;;;5.63;3.83;;;27.70;91.60;;;;;;5003403;28;20236;-75
2021/08/20 06:57:27;;;;;;;9.82;3.70;;;27.80;91.50;;;;;;4988881;28;20224;-75
2021/08/20 06:59:53;;;;;;;6.82;3.60;;;27.80;90.70;;;;;;5006832;28;20216;-75
2021/08/20 07:02:20;;;;;;;8.43;3.50;;;27.90;90.40;;;;;;5007948;28;20201;-75
2021/08/20 07:04:46;;;;;;;6.40;4.03;;;28.10;90.30;;;;;;5008055;28;20220;-75
2021/08/20 07:07:12;;;;;;;8.40;3.47;;;28.20;90.20;;;;;;5006871;28;20189;-75
2021/08/20 07:09:38;;;;;;;9.60;3.42;;;28.20;90.70;;;;;;5012574;28;20654;-74
2021/08/20 07:12:05;;;;;;;6.63;4.03;;;28.30;90.20;;;;;;5004930;28;20203;-75
2021/08/20 07:14:31;;;;;;;6.63;4.00;;;28.70;90.00;;;;;;5005275;28;20258;-74
2021/08/20 07:16:58;;;;;;;8.32;4.00;;;28.80;90.40;;;;;;4989864;28;20177;-75
2021/08/20 07:19:24;;;;;;;5.05;3.55;;;28.80;91.60;;;;;;5004412;28;20204;-73
2021/08/20 07:21:50;;;;;;;9.50;3.95;;;28.90;92.40;;;;;;5006215;28;20243;-75
2021/08/20 07:24:17;;;;;;;8.18;4.05;;;28.90;93.30;;;;;;5007648;28;20192;-74
2021/08/20 07:26:43;;;;;;;9.73;4.90;;;29.00;96.20;;;;;;5009788;28;20821;-74
2021/08/20 07:29:10;;;;;;;8.02;4.35;;;29.20;98.00;;;;;;5006227;28;20193;-75
2021/08/20 07:31:36;;;;;;;10.07;4.38;;;29.20;97.90;;;;;;5000236;28;20666;-75
2021/08/20 07:34:03;;;;;;;15.05;4.63;;;29.20;98.50;;;;;;5008260;28;20184;-74
2021/08/20 07:36:30;;;;;;;12.40;4.45;;;29.20;97.10;;;;;;5007050;28;20218;-74
2021/08/20 07:38:56;;;;;;;8.32;4.25;;;29.30;98.60;;;;;;5000333;28;20223;-74
2021/08/20 07:41:22;;;;;;;9.98;3.90;;;29.30;98.00;;;;;;5001361;28;20346;-75
2021/08/20 07:43:49;;;;;;;7.90;4.53;;;29.30;98.60;;;;;;5006413;28;20658;-75
2021/08/20 07:46:15;;;;;;;12.02;4.45;;;29.20;98.00;;;;;;5010691;28;20197;-75
2021/08/20 07:48:41;;;;;;;9.18;4.60;;;29.30;98.10;;;;;;5004928;28;20960;-75
2021/08/20 07:51:08;;;;;;;10.48;4.55;;;29.30;98.20;;;;;;4993181;28;20253;-75
2021/08/20 07:53:34;;;;;;;10.82;4.60;;;29.20;98.00;;;;;;5008776;28;20303;-75
2021/08/20 07:56:00;;;;;;;14.18;4.55;;;29.20;98.40;;;;;;5011287;28;20227;-75
2021/08/20 07:58:27;;;;;;;8.23;4.55;;;29.30;98.60;;;;;;5002635;28;20693;-75
2021/08/20 08:00:53;;;;;;;11.63;4.90;;;29.40;98.90;;;;;;5010340;28;20193;-75
2021/08/20 08:03:20;;;;;;;11.55;4.47;;;29.40;99.50;;;;;;5009593;28;20965;-75
2021/08/20 08:05:46;;;;;;;11.50;4.80;;;29.50;99.90;;;;;;5019394;28;20239;-75
2021/08/20 08:08:13;;;;;;;12.98;5.05;;;29.60;99.90;;;;;;4992323;28;20208;-75
2021/08/20 08:10:41;;;;;;;17.05;5.03;;;29.70;99.90;;;;;;4999611;28;20200;-75
2021/08/20 08:13:07;;;;;;;8.32;4.18;;;29.60;99.90;;;;;;4987517;28;20814;-75
2021/08/20 08:15:34;;;;;;;9.07;4.38;;;29.80;99.90;;;;;;4992673;28;20223;-74
2021/08/20 08:18:00;;;;;;;7.30;4.30;;;29.90;99.70;;;;;;5012478;28;20185;-74
2021/08/20 08:20:26;;;;;;;10.00;4.30;;;30.00;99.80;;;;;;4992952;28;20186;-75
2021/08/20 08:22:53;;;;;;;13.93;5.13;;;30.00;99.70;;;;;;5005754;28;20185;-74
2021/08/20 08:25:20;;;;;;;9.32;4.95;;;30.10;99.70;;;;;;5010930;28;20185;-74
2021/08/20 08:27:54;;;;;;;10.40;4.95;;;30.20;99.80;;;;;;5004842;28;20203;-74
2021/08/20 08:30:26;;;;;;;11.48;3.95;;;30.20;99.50;;;;;;5004368;28;20193;-74
2021/08/20 08:32:54;;;;;;;7.60;4.55;;;30.30;99.80;;;;;;5013563;28;20186;-74
2021/08/20 08:35:21;;;;;;;15.98;5.15;;;30.50;99.80;;;;;;5009240;28;20709;-74
2021/08/20 08:37:47;;;;;;;14.60;4.65;;;30.50;99.90;;;;;;5010379;28;20207;-74
2021/08/20 08:40:14;;;;;;;11.18;4.40;;;30.60;99.60;;;;;;5001135;28;20184;-74
2021/08/20 08:42:40;;;;;;;12.82;4.72;;;30.60;97.20;;;;;;4998402;28;20176;-74
2021/08/20 08:45:07;;;;;;;10.45;4.60;;;30.50;99.30;;;;;;5007705;28;20247;-71
2021/08/20 08:47:36;;;;;;;10.70;4.80;;;30.80;98.90;;;;;;5008434;28;20192;-71
2021/08/20 08:50:07;;;;;;;9.02;4.85;;;30.80;97.00;;;;;;5006106;28;20204;-74
2021/08/20 08:52:34;;;;;;;13.90;4.88;;;30.90;97.50;;;;;;5010027;28;20200;-73
2021/08/20 08:55:03;;;;;;;12.30;4.72;;;31.00;97.60;;;;;;5009581;28;20777;-75
2021/08/20 08:57:31;;;;;;;13.15;5.07;;;31.00;96.90;;;;;;5003839;28;20958;-73
2021/08/20 08:59:57;;;;;;;17.52;4.88;;;31.20;96.90;;;;;;5003913;28;20283;-73
2021/08/20 09:02:26;;;;;;;13.25;4.72;;;31.20;95.30;;;;;;4988301;28;20188;-73
2021/08/20 09:05:01;;;;;;;7.20;4.00;;;31.30;96.60;;;;;;4987817;28;20200;-75
2021/08/20 09:07:29;;;;;;;11.07;4.32;;;31.40;94.90;;;;;;5005231;28;20192;-73
2021/08/20 09:10:26;;;;;;;12.70;4.57;;;31.40;93.90;;;;;;4989375;28;20702;-75
2021/08/20 09:12:56;;;;;;;13.60;5.03;;;31.40;95.50;;;;;;4995244;28;20215;-75
2021/08/20 09:15:33;;;;;;;14.05;4.78;;;31.70;97.80;;;;;;4998554;28;20216;-71
2021/08/20 09:18:03;;;;;;;11.85;4.70;;;31.70;95.60;;;;;;5017895;28;20224;-75
2021/08/20 09:20:36;;;;;;;6.28;4.00;;;31.60;95.10;;;;;;5005065;28;20520;-75
2021/08/20 09:23:26;;;;;;;12.40;4.40;;;31.80;96.00;;;;;;5017622;28;20197;-75
2021/08/20 09:25:55;;;;;;;13.80;4.75;;;31.80;96.30;;;;;;5005371;28;20987;-74
2021/08/20 09:28:33;;;;;;;9.10;4.10;;;31.90;95.10;;;;;;4985316;28;20197;-75
2021/08/20 09:31:12;;;;;;;11.25;4.50;;;32.00;92.70;;;;;;4987431;28;20764;-75
2021/08/20 09:33:49;;;;;;;13.85;4.80;;;32.00;96.30;;;;;;4988507;28;20195;-75
2021/08/20 09:36:21;;;;;;;12.18;5.20;;;32.00;96.20;;;;;;5004775;28;20216;-74
2021/08/20 09:38:55;;;;;;;13.90;4.60;;;32.10;96.10;;;;;;5015691;28;20279;-75
2021/08/20 09:41:28;;;;;;;11.95;4.63;;;32.10;95.70;;;;;;5003346;28;20563;-75
2021/08/20 09:44:01;;;;;;;14.32;5.40;;;32.20;96.70;;;;;;4994158;28;20272;-75
2021/08/20 09:46:41;;;;;;;11.60;4.78;;;32.20;97.80;;;;;;5000457;28;20204;-75
2021/08/20 09:49:07;;;;;;;18.55;5.22;;;32.50;97.90;;;;;;5001115;28;20224;-75
2021/08/20 09:51:51;;;;;;;12.23;5.43;;;32.50;97.50;;;;;;5001587;28;20255;-73
2021/08/20 09:54:23;;;;;;;10.65;4.90;;;32.40;98.40;;;;;;5003433;28;20311;-75
2021/08/20 09:56:51;;;;;;;10.23;5.10;;;32.40;98.80;;;;;;5001657;28;20195;-69
2021/08/20 09:59:18;;;;;;;11.50;4.90;;;32.40;98.20;;;;;;4999635;28;20739;-72
2021/08/20 10:01:47;;;;;;;14.55;4.65;;;32.50;98.70;;;;;;5017565;28;20189;-72
2021/08/20 10:04:18;;;;;;;11.25;5.13;;;32.60;99.10;;;;;;5001297;28;20727;-71
2021/08/20 10:06:48;;;;;;;20.20;5.38;;;32.60;98.30;;;;;;5000893;28;20203;-70
2021/08/20 10:09:19;;;;;;;11.52;4.68;;;32.70;98.80;;;;;;5001431;28;20205;-70
2021/08/20 10:11:53;;;;;;;13.18;5.20;;;32.80;98.90;;;;;;5001183;28;20188;-71
2021/08/20 10:14:29;;;;;;;12.40;5.68;;;33.30;98.80;;;;;;4994633;28;20227;-73
2021/08/20 10:16:55;;;;;;;14.60;5.13;;;35.20;96.60;;;;;;5000197;28;20189;-69
2021/08/20 10:19:22;;;;;;;15.52;5.07;;;37.30;94.00;;;;;;5012029;28;20189;-72
2021/08/20 10:21:50;;;;;;;11.10;5.32;;;37.90;92.40;;;;;;5003449;28;20279;-70
2021/08/20 10:24:16;;;;;;;10.82;5.43;;;36.60;93.40;;;;;;5002647;28;20193;-70
2021/08/20 10:27:05;;;;;;;10.93;5.38;;;35.50;94.60;;;;;;5000170;28;20192;-69
2021/08/20 10:29:39;;;;;;;11.05;4.72;;;35.00;95.80;;;;;;5015806;28;20196;-70
2021/08/20 10:32:10;;;;;;;14.52;5.50;;;34.60;95.80;;;;;;5002038;28;20646;-69
2021/08/20 10:34:41;;;;;;;17.17;5.25;;;34.50;96.30;;;;;;4982313;28;20275;-71
2021/08/20 10:37:28;;;;;;;12.38;5.60;;;35.40;95.50;;;;;;5001870;28;20189;-71
2021/08/20 10:40:20;;;;;;;15.18;4.95;;;35.90;94.70;;;;;;5000897;28;20185;-69
2021/08/20 10:42:48;;;;;;;11.05;5.18;;;36.50;94.20;;;;;;4996594;28;20184;-72
2021/08/20 10:45:14;;;;;;;12.65;5.00;;;37.50;92.40;;;;;;4998282;28;20810;-73
2021/08/20 10:47:42;;;;;;;12.13;5.15;;;35.90;93.10;;;;;;4997874;28;20643;-71
2021/08/20 10:50:19;;;;;;;12.18;5.22;;;35.10;94.10;;;;;;5010664;28;20193;-69
2021/08/20 10:52:52;;;;;;;15.13;4.75;;;34.60;94.20;;;;;;4999043;28;20192;-70
2021/08/20 10:55:29;;;;;;;20.55;5.15;;;34.30;94.10;;;;;;4986386;28;20574;-72
2021/08/20 10:58:14;;;;;;;12.95;5.63;;;34.10;94.90;;;;;;4986496;28;20181;-69
2021/08/20 11:00:51;;;;;;;10.88;5.15;;;33.90;93.70;;;;;;5002713;28;20185;-70
2021/08/20 11:03:41;;;;;;;17.52;5.32;;;33.90;92.80;;;;;;5003622;28;20188;-70
2021/08/20 11:06:08;;;;;;;15.88;4.90;;;33.80;93.20;;;;;;4999330;28;20193;-71
2021/08/20 11:08:37;;;;;;;11.63;5.28;;;33.60;93.90;;;;;;4999639;28;20185;-69
2021/08/20 11:11:05;;;;;;;11.93;5.47;;;33.50;95.50;;;;;;5002068;28;20196;-69
2021/08/20 11:13:33;;;;;;;10.18;5.15;;;33.60;94.90;;;;;;5003789;28;20189;-70
2021/08/20 11:16:02;;;;;;;11.75;5.00;;;33.70;95.90;;;;;;5001402;28;20251;-72
2021/08/20 11:18:45;;;;;;;18.85;5.50;;;33.70;95.70;;;;;;5000048;28;20281;-70
2021/08/20 11:21:47;;;;;;;10.38;5.18;;;33.70;95.70;;;;;;5007892;28;20197;-69
2021/08/20 11:24:21;;;;;;;12.85;5.72;;;33.60;95.50;;;;;;5004755;28;20502;-69
2021/08/20 11:26:48;;;;;;;15.52;5.57;;;33.60;95.70;;;;;;5003749;28;20280;-71
2021/08/20 11:29:16;;;;;;;16.48;5.38;;;33.60;96.00;;;;;;5002571;28;20243;-70
2021/08/20 11:31:44;;;;;;;19.42;5.18;;;33.60;95.60;;;;;;5016753;28;20966;-68
2021/08/20 11:34:11;;;;;;;12.15;5.10;;;33.50;95.90;;;;;;5004161;28;20200;-69
2021/08/20 11:36:43;;;;;;;10.70;5.63;;;33.50;95.50;;;;;;5004370;28;20197;-72
2021/08/20 11:39:15;;;;;;;8.27;4.90;;;33.60;95.40;;;;;;5002881;28;20264;-70
2021/08/20 11:44:12;;;;;;;14.25;5.38;;;33.70;94.80;;;;;;5001004;28;20307;-69
2021/08/20 11:46:40;;;;;;;10.07;4.85;;;33.70;94.60;;;;;;5004875;28;20319;-70
2021/08/20 11:49:09;;;;;;;11.45;5.10;;;33.80;94.20;;;;;;5000400;28;20204;-71
2021/08/20 11:51:43;;;;;;;13.68;5.30;;;33.80;94.00;;;;;;5004306;28;20190;-71
2021/08/20 11:54:13;;;;;;;13.43;4.93;;;33.60;93.90;;;;;;5004442;28;20184;-70
2021/08/20 11:56:54;;;;;;;16.02;5.10;;;33.80;93.60;;;;;;5002832;28;20662;-71
2021/08/20 11:59:23;;;;;;;11.63;4.88;;;33.70;93.20;;;;;;5018097;28;20193;-69
2021/08/20 12:01:55;;;;;;;9.00;5.03;;;33.70;92.40;;;;;;5004093;28;20269;-70
2021/08/20 12:04:23;;;;;;;12.30;5.25;;;33.70;93.00;;;;;;5003730;28;20296;-72
2021/08/20 12:06:50;;;;;;;10.65;4.63;;;33.60;92.90;;;;;;5006762;28;20239;-70
2021/08/20 12:09:19;;;;;;;14.38;4.55;;;33.30;92.80;;;;;;5003160;28;20181;-70
2021/08/20 12:11:51;;;;;;;14.15;4.80;;;33.60;92.60;;;;;;5005741;28;20203;-70
2021/08/20 12:14:30;;;;;;;9.43;4.35;;;33.60;92.00;;;;;;5003439;28;20285;-68
2021/08/20 12:16:58;;;;;;;10.25;4.40;;;33.70;90.90;;;;;;5002466;28;20584;-70
2021/08/20 12:19:42;;;;;;;7.15;4.50;;;33.40;91.50;;;;;;4996168;28;20185;-69
2021/08/20 12:22:14;;;;;;;13.25;4.43;;;33.70;91.10;;;;;;5005655;28;20200;-72
2021/08/20 12:24:48;;;;;;;11.27;4.65;;;33.50;90.50;;;;;;5004847;28;20219;-71
2021/08/20 12:27:26;;;;;;;11.25;4.10;;;33.90;89.00;;;;;;5008152;28;20858;-72
2021/08/20 12:29:58;;;;;;;8.43;4.35;;;33.90;88.20;;;;;;5007014;28;20279;-70
2021/08/20 12:32:29;;;;;;;10.68;4.50;;;33.90;87.90;;;;;;5005607;28;20280;-70
2021/08/20 12:34:58;;;;;;;7.28;3.78;;;33.90;87.00;;;;;;5005113;28;20201;-69
2021/08/20 12:37:26;;;;;;;12.95;4.15;;;33.90;87.00;;;;;;5009051;28;20185;-72
2021/08/20 12:40:13;;;;;;;10.68;4.03;;;33.80;83.40;;;;;;5000976;28;20189;-69
2021/08/20 12:42:50;;;;;;;7.03;3.80;;;33.90;80.60;;;;;;4991489;28;20677;-69
2021/08/20 12:45:21;;;;;;;7.00;3.88;;;33.90;79.50;;;;;;5008554;28;20195;-69
2021/08/20 12:48:10;;;;;;;9.43;3.88;;;34.00;79.70;;;;;;5004788;28;20197;-73
2021/08/20 12:50:38;;;;;;;11.30;4.18;;;34.10;78.80;;;;;;4999964;28;20192;-71
2021/08/20 12:53:10;;;;;;;11.55;4.50;;;34.10;75.30;;;;;;5009116;28;20586;-71
2021/08/20 12:55:46;;;;;;;9.27;3.80;;;34.10;78.80;;;;;;5022974;28;20593;-70